sensor_id;sensor_type;location;lat;lon;timestamp;P1;durP1;ratioP1;P2;durP2;ratioP2
65572;SDS011;52214;50.940;13.996;2022-11-20T00:03:39;24.02;;;9.18;;
65572;SDS011;52214;50.940;13.996;2022-11-20T00:06:06;23.08;;;7.90;;
65572;SDS011;52214;50.940;13.996;2022-11-20T00:08:34;26.00;;;10.03;;
65572;SDS011;52214;50.940;13.996;2022-11-20T00:11:04;25.40;;;9.13;;
65572;SDS011;52214;50.940;13.996;2022-11-20T00:13:34;24.90;;;8.77;;
65572;SDS011;52214;50.940;13.996;2022-11-20T00:16:00;24.85;;;8.73;;
65572;SDS011;52214;50.940;13.996;2022-11-20T00:18:28;25.52;;;8.30;;
65572;SDS011;52214;50.940;13.996;2022-11-20T00:20:59;29.23;;;9.93;;
65572;SDS011;52214;50.940;13.996;2022-11-20T00:23:28;30.60;;;10.35;;
65572;SDS011;52214;50.940;13.996;2022-11-20T00:25:54;24.13;;;9.38;;
65572;SDS011;52214;50.940;13.996;2022-11-20T00:28:20;22.05;;;8.52;;
65572;SDS011;52214;50.940;13.996;2022-11-20T00:30:45;21.87;;;8.67;;
65572;SDS011;52214;50.940;13.996;2022-11-20T00:33:11;26.10;;;9.77;;
65572;SDS011;52214;50.940;13.996;2022-11-20T00:35:36;29.48;;;10.52;;
65572;SDS011;52214;50.940;13.996;2022-11-20T00:38:02;24.55;;;10.50;;
65572;SDS011;52214;50.940;13.996;2022-11-20T00:40:27;31.53;;;10.87;;
65572;SDS011;52214;50.940;13.996;2022-11-20T00:42:53;28.20;;;9.50;;
65572;SDS011;52214;50.940;13.996;2022-11-20T00:45:18;28.50;;;9.95;;
65572;SDS011;52214;50.940;13.996;2022-11-20T00:47:44;31.37;;;11.73;;
65572;SDS011;52214;50.940;13.996;2022-11-20T00:50:09;25.57;;;10.00;;
65572;SDS011;52214;50.940;13.996;2022-11-20T00:52:35;31.53;;;10.20;;
65572;SDS011;52214;50.940;13.996;2022-11-20T00:55:00;24.70;;;9.63;;
65572;SDS011;52214;50.940;13.996;2022-11-20T00:57:26;26.58;;;9.70;;
65572;SDS011;52214;50.940;13.996;2022-11-20T00:59:51;31.37;;;10.60;;
65572;SDS011;52214;50.940;13.996;2022-11-20T01:02:17;23.77;;;9.27;;
65572;SDS011;52214;50.940;13.996;2022-11-20T01:04:42;25.63;;;9.87;;
65572;SDS011;52214;50.940;13.996;2022-11-20T01:07:08;29.08;;;11.23;;
65572;SDS011;52214;50.940;13.996;2022-11-20T01:09:34;31.70;;;9.87;;
65572;SDS011;52214;50.940;13.996;2022-11-20T01:11:59;24.40;;;10.02;;
65572;SDS011;52214;50.940;13.996;2022-11-20T01:14:25;32.15;;;10.90;;
65572;SDS011;52214;50.940;13.996;2022-11-20T01:16:51;24.00;;;9.85;;
65572;SDS011;52214;50.940;13.996;2022-11-20T01:19:18;26.25;;;9.77;;
65572;SDS011;52214;50.940;13.996;2022-11-20T01:21:47;29.80;;;9.95;;
65572;SDS011;52214;50.940;13.996;2022-11-20T01:24:15;26.33;;;9.18;;
65572;SDS011;52214;50.940;13.996;2022-11-20T01:26:43;27.40;;;9.70;;
65572;SDS011;52214;50.940;13.996;2022-11-20T01:29:14;21.85;;;9.23;;
65572;SDS011;52214;50.940;13.996;2022-11-20T01:31:50;26.73;;;9.30;;
65572;SDS011;52214;50.940;13.996;2022-11-20T01:34:18;29.03;;;10.37;;
65572;SDS011;52214;50.940;13.996;2022-11-20T01:36:46;25.92;;;11.18;;
65572;SDS011;52214;50.940;13.996;2022-11-20T01:39:14;31.45;;;11.55;;
65572;SDS011;52214;50.940;13.996;2022-11-20T01:41:42;31.02;;;11.07;;
65572;SDS011;52214;50.940;13.996;2022-11-20T01:50:16;25.63;;;9.25;;
65572;SDS011;52214;50.940;13.996;2022-11-20T01:52:46;28.80;;;10.93;;
65572;SDS011;52214;50.940;13.996;2022-11-20T01:55:25;26.42;;;10.43;;
65572;SDS011;52214;50.940;13.996;2022-11-20T01:57:55;32.15;;;10.50;;
65572;SDS011;52214;50.940;13.996;2022-11-20T02:00:21;27.73;;;9.90;;
65572;SDS011;52214;50.940;13.996;2022-11-20T02:08:35;27.75;;;10.50;;
65572;SDS011;52214;50.940;13.996;2022-11-20T02:11:02;21.98;;;8.10;;
65572;SDS011;52214;50.940;13.996;2022-11-20T02:13:28;25.23;;;9.20;;
65572;SDS011;52214;50.940;13.996;2022-11-20T02:18:40;23.00;;;9.68;;
65572;SDS011;52214;50.940;13.996;2022-11-20T02:21:07;32.75;;;11.25;;
65572;SDS011;52214;50.940;13.996;2022-11-20T02:24:02;33.90;;;11.13;;
65572;SDS011;52214;50.940;13.996;2022-11-20T02:27:00;25.95;;;9.98;;
65572;SDS011;52214;50.940;13.996;2022-11-20T02:32:47;29.25;;;10.57;;
65572;SDS011;52214;50.940;13.996;2022-11-20T02:35:09;25.02;;;9.48;;
65572;SDS011;52214;50.940;13.996;2022-11-20T02:37:59;26.73;;;10.03;;
65572;SDS011;52214;50.940;13.996;2022-11-20T02:40:27;24.80;;;8.07;;
65572;SDS011;52214;50.940;13.996;2022-11-20T02:42:56;30.23;;;9.97;;
65572;SDS011;52214;50.940;13.996;2022-11-20T02:45:22;26.13;;;10.27;;
65572;SDS011;52214;50.940;13.996;2022-11-20T02:47:49;30.40;;;10.48;;
65572;SDS011;52214;50.940;13.996;2022-11-20T02:50:15;23.77;;;9.25;;
65572;SDS011;52214;50.940;13.996;2022-11-20T02:52:41;29.73;;;12.45;;
65572;SDS011;52214;50.940;13.996;2022-11-20T02:55:06;31.13;;;10.07;;
65572;SDS011;52214;50.940;13.996;2022-11-20T02:57:32;23.83;;;9.45;;
65572;SDS011;52214;50.940;13.996;2022-11-20T02:59:57;27.10;;;10.23;;
65572;SDS011;52214;50.940;13.996;2022-11-20T03:02:23;31.93;;;10.83;;
65572;SDS011;52214;50.940;13.996;2022-11-20T03:04:48;31.90;;;11.32;;
65572;SDS011;52214;50.940;13.996;2022-11-20T03:07:14;36.73;;;12.07;;
65572;SDS011;52214;50.940;13.996;2022-11-20T03:09:40;30.20;;;11.67;;
65572;SDS011;52214;50.940;13.996;2022-11-20T03:12:05;32.77;;;12.13;;
65572;SDS011;52214;50.940;13.996;2022-11-20T03:14:31;27.05;;;10.60;;
65572;SDS011;52214;50.940;13.996;2022-11-20T03:16:56;27.13;;;10.10;;
65572;SDS011;52214;50.940;13.996;2022-11-20T03:19:22;26.83;;;10.00;;
65572;SDS011;52214;50.940;13.996;2022-11-20T03:21:48;33.45;;;10.98;;
65572;SDS011;52214;50.940;13.996;2022-11-20T03:24:14;29.03;;;9.67;;
65572;SDS011;52214;50.940;13.996;2022-11-20T03:26:39;34.47;;;11.15;;
65572;SDS011;52214;50.940;13.996;2022-11-20T03:29:05;32.70;;;10.25;;
65572;SDS011;52214;50.940;13.996;2022-11-20T03:31:34;27.83;;;11.07;;
65572;SDS011;52214;50.940;13.996;2022-11-20T03:34:02;26.52;;;9.60;;
65572;SDS011;52214;50.940;13.996;2022-11-20T03:36:29;26.57;;;9.20;;
65572;SDS011;52214;50.940;13.996;2022-11-20T03:38:56;26.48;;;9.38;;
65572;SDS011;52214;50.940;13.996;2022-11-20T03:41:26;31.58;;;9.88;;
65572;SDS011;52214;50.940;13.996;2022-11-20T03:43:54;26.60;;;10.02;;
65572;SDS011;52214;50.940;13.996;2022-11-20T03:46:22;34.35;;;11.85;;
65572;SDS011;52214;50.940;13.996;2022-11-20T03:48:48;32.38;;;10.13;;
65572;SDS011;52214;50.940;13.996;2022-11-20T03:51:15;28.48;;;10.60;;
65572;SDS011;52214;50.940;13.996;2022-11-20T03:53:48;33.17;;;11.60;;
65572;SDS011;52214;50.940;13.996;2022-11-20T03:56:16;27.25;;;10.90;;
65572;SDS011;52214;50.940;13.996;2022-11-20T03:58:43;37.90;;;12.07;;
65572;SDS011;52214;50.940;13.996;2022-11-20T04:01:10;27.60;;;11.23;;
65572;SDS011;52214;50.940;13.996;2022-11-20T04:03:41;35.17;;;11.05;;
65572;SDS011;52214;50.940;13.996;2022-11-20T04:06:14;29.35;;;10.85;;
65572;SDS011;52214;50.940;13.996;2022-11-20T04:08:42;29.77;;;11.60;;
65572;SDS011;52214;50.940;13.996;2022-11-20T04:11:18;35.83;;;12.27;;
65572;SDS011;52214;50.940;13.996;2022-11-20T04:13:46;31.08;;;12.30;;
65572;SDS011;52214;50.940;13.996;2022-11-20T04:16:16;36.10;;;12.68;;
65572;SDS011;52214;50.940;13.996;2022-11-20T04:18:42;33.08;;;10.88;;
65572;SDS011;52214;50.940;13.996;2022-11-20T04:21:08;34.67;;;12.50;;
65572;SDS011;52214;50.940;13.996;2022-11-20T04:23:34;35.38;;;11.63;;
65572;SDS011;52214;50.940;13.996;2022-11-20T04:26:00;32.37;;;11.73;;
65572;SDS011;52214;50.940;13.996;2022-11-20T04:28:30;32.63;;;11.15;;
65572;SDS011;52214;50.940;13.996;2022-11-20T04:31:06;35.00;;;12.63;;
65572;SDS011;52214;50.940;13.996;2022-11-20T04:33:33;33.22;;;12.25;;
65572;SDS011;52214;50.940;13.996;2022-11-20T04:36:03;38.92;;;13.02;;
65572;SDS011;52214;50.940;13.996;2022-11-20T04:38:31;39.88;;;13.45;;
65572;SDS011;52214;50.940;13.996;2022-11-20T04:40:58;34.90;;;12.23;;
65572;SDS011;52214;50.940;13.996;2022-11-20T04:43:25;25.92;;;10.98;;
65572;SDS011;52214;50.940;13.996;2022-11-20T04:45:51;37.90;;;13.88;;
65572;SDS011;52214;50.940;13.996;2022-11-20T04:48:18;31.93;;;12.97;;
65572;SDS011;52214;50.940;13.996;2022-11-20T04:50:43;30.63;;;12.00;;
65572;SDS011;52214;50.940;13.996;2022-11-20T04:53:09;35.20;;;12.27;;
65572;SDS011;52214;50.940;13.996;2022-11-20T04:55:34;31.77;;;11.77;;
65572;SDS011;52214;50.940;13.996;2022-11-20T04:58:00;38.77;;;12.27;;
65572;SDS011;52214;50.940;13.996;2022-11-20T05:00:25;31.40;;;11.87;;
65572;SDS011;52214;50.940;13.996;2022-11-20T05:02:51;30.85;;;11.60;;
65572;SDS011;52214;50.940;13.996;2022-11-20T05:05:16;31.23;;;9.67;;
65572;SDS011;52214;50.940;13.996;2022-11-20T05:07:42;33.53;;;12.73;;
65572;SDS011;52214;50.940;13.996;2022-11-20T05:10:07;35.23;;;12.53;;
65572;SDS011;52214;50.940;13.996;2022-11-20T05:12:33;33.30;;;11.40;;
65572;SDS011;52214;50.940;13.996;2022-11-20T05:14:58;30.63;;;12.70;;
65572;SDS011;52214;50.940;13.996;2022-11-20T05:17:24;27.20;;;10.95;;
65572;SDS011;52214;50.940;13.996;2022-11-20T05:22:51;30.92;;;10.18;;
65572;SDS011;52214;50.940;13.996;2022-11-20T05:25:16;28.45;;;10.77;;
65572;SDS011;52214;50.940;13.996;2022-11-20T05:27:42;28.90;;;9.67;;
65572;SDS011;52214;50.940;13.996;2022-11-20T05:30:08;32.53;;;10.37;;
65572;SDS011;52214;50.940;13.996;2022-11-20T05:32:34;29.23;;;11.10;;
65572;SDS011;52214;50.940;13.996;2022-11-20T05:34:59;30.80;;;11.13;;
65572;SDS011;52214;50.940;13.996;2022-11-20T05:37:25;37.63;;;12.73;;
65572;SDS011;52214;50.940;13.996;2022-11-20T05:39:50;27.30;;;11.10;;
65572;SDS011;52214;50.940;13.996;2022-11-20T05:42:16;31.80;;;12.53;;
65572;SDS011;52214;50.940;13.996;2022-11-20T05:44:57;24.92;;;9.20;;
65572;SDS011;52214;50.940;13.996;2022-11-20T05:49:55;26.48;;;11.13;;
65572;SDS011;52214;50.940;13.996;2022-11-20T05:52:20;26.80;;;10.33;;
65572;SDS011;52214;50.940;13.996;2022-11-20T05:54:46;30.30;;;11.33;;
65572;SDS011;52214;50.940;13.996;2022-11-20T05:57:11;22.15;;;9.98;;
65572;SDS011;52214;50.940;13.996;2022-11-20T05:59:37;29.87;;;10.40;;
65572;SDS011;52214;50.940;13.996;2022-11-20T06:02:03;27.33;;;10.02;;
65572;SDS011;52214;50.940;13.996;2022-11-20T06:04:28;29.93;;;10.80;;
65572;SDS011;52214;50.940;13.996;2022-11-20T06:06:54;21.43;;;9.20;;
65572;SDS011;52214;50.940;13.996;2022-11-20T06:09:19;30.93;;;11.50;;
65572;SDS011;52214;50.940;13.996;2022-11-20T06:11:45;33.38;;;11.45;;
65572;SDS011;52214;50.940;13.996;2022-11-20T06:14:10;28.60;;;10.93;;
65572;SDS011;52214;50.940;13.996;2022-11-20T06:16:36;23.77;;;10.83;;
65572;SDS011;52214;50.940;13.996;2022-11-20T06:19:01;28.23;;;11.60;;
65572;SDS011;52214;50.940;13.996;2022-11-20T06:21:27;31.50;;;10.93;;
65572;SDS011;52214;50.940;13.996;2022-11-20T06:23:53;29.53;;;11.17;;
65572;SDS011;52214;50.940;13.996;2022-11-20T06:26:22;30.77;;;11.30;;
65572;SDS011;52214;50.940;13.996;2022-11-20T06:28:51;35.50;;;12.27;;
65572;SDS011;52214;50.940;13.996;2022-11-20T06:31:19;30.67;;;12.73;;
65572;SDS011;52214;50.940;13.996;2022-11-20T06:33:46;30.33;;;11.15;;
65572;SDS011;52214;50.940;13.996;2022-11-20T06:36:12;32.92;;;10.55;;
65572;SDS011;52214;50.940;13.996;2022-11-20T06:38:39;31.70;;;10.47;;
65572;SDS011;52214;50.940;13.996;2022-11-20T06:41:06;34.53;;;12.10;;
65572;SDS011;52214;50.940;13.996;2022-11-20T06:43:35;35.53;;;12.95;;
65572;SDS011;52214;50.940;13.996;2022-11-20T06:46:00;30.33;;;12.37;;
65572;SDS011;52214;50.940;13.996;2022-11-20T06:48:26;33.97;;;10.93;;
65572;SDS011;52214;50.940;13.996;2022-11-20T06:50:53;25.38;;;10.35;;
65572;SDS011;52214;50.940;13.996;2022-11-20T06:53:18;33.97;;;11.77;;
65572;SDS011;52214;50.940;13.996;2022-11-20T06:55:47;30.95;;;11.75;;
65572;SDS011;52214;50.940;13.996;2022-11-20T06:58:13;29.25;;;10.57;;
65572;SDS011;52214;50.940;13.996;2022-11-20T07:00:40;34.50;;;12.27;;
65572;SDS011;52214;50.940;13.996;2022-11-20T07:03:07;32.53;;;12.17;;
65572;SDS011;52214;50.940;13.996;2022-11-20T07:05:34;32.35;;;11.38;;
65572;SDS011;52214;50.940;13.996;2022-11-20T07:08:01;29.00;;;10.73;;
65572;SDS011;52214;50.940;13.996;2022-11-20T07:10:27;29.15;;;11.30;;
65572;SDS011;52214;50.940;13.996;2022-11-20T07:12:53;35.67;;;12.70;;
65572;SDS011;52214;50.940;13.996;2022-11-20T07:15:19;42.03;;;11.90;;
65572;SDS011;52214;50.940;13.996;2022-11-20T07:17:46;32.50;;;11.07;;
65572;SDS011;52214;50.940;13.996;2022-11-20T07:20:12;32.50;;;11.75;;
65572;SDS011;52214;50.940;13.996;2022-11-20T07:22:38;29.50;;;10.98;;
65572;SDS011;52214;50.940;13.996;2022-11-20T07:25:04;32.92;;;11.90;;
65572;SDS011;52214;50.940;13.996;2022-11-20T07:27:30;35.53;;;11.47;;
65572;SDS011;52214;50.940;13.996;2022-11-20T07:29:56;29.95;;;11.20;;
65572;SDS011;52214;50.940;13.996;2022-11-20T07:32:22;34.57;;;11.77;;
65572;SDS011;52214;50.940;13.996;2022-11-20T07:34:47;34.55;;;11.93;;
65572;SDS011;52214;50.940;13.996;2022-11-20T07:37:13;35.67;;;12.40;;
65572;SDS011;52214;50.940;13.996;2022-11-20T07:39:39;34.72;;;11.93;;
65572;SDS011;52214;50.940;13.996;2022-11-20T07:42:08;27.97;;;10.47;;
65572;SDS011;52214;50.940;13.996;2022-11-20T07:44:34;30.95;;;11.63;;
65572;SDS011;52214;50.940;13.996;2022-11-20T07:46:59;32.40;;;11.60;;
65572;SDS011;52214;50.940;13.996;2022-11-20T07:49:25;35.10;;;11.82;;
65572;SDS011;52214;50.940;13.996;2022-11-20T07:51:51;39.53;;;11.87;;
65572;SDS011;52214;50.940;13.996;2022-11-20T07:54:20;27.40;;;9.48;;
65572;SDS011;52214;50.940;13.996;2022-11-20T07:56:46;33.17;;;11.05;;
65572;SDS011;52214;50.940;13.996;2022-11-20T07:59:12;31.90;;;10.63;;
65572;SDS011;52214;50.940;13.996;2022-11-20T08:01:38;33.75;;;10.60;;
65572;SDS011;52214;50.940;13.996;2022-11-20T08:04:05;28.70;;;11.52;;
65572;SDS011;52214;50.940;13.996;2022-11-20T08:06:30;31.50;;;11.27;;
65572;SDS011;52214;50.940;13.996;2022-11-20T08:08:56;28.77;;;10.80;;
65572;SDS011;52214;50.940;13.996;2022-11-20T08:11:22;32.20;;;11.03;;
65572;SDS011;52214;50.940;13.996;2022-11-20T08:14:06;30.88;;;11.07;;
65572;SDS011;52214;50.940;13.996;2022-11-20T08:16:37;31.33;;;10.57;;
65572;SDS011;52214;50.940;13.996;2022-11-20T08:19:06;35.22;;;10.45;;
65572;SDS011;52214;50.940;13.996;2022-11-20T08:21:32;33.67;;;10.38;;
65572;SDS011;52214;50.940;13.996;2022-11-20T08:23:58;30.13;;;10.10;;
65572;SDS011;52214;50.940;13.996;2022-11-20T08:26:24;26.77;;;9.45;;
65572;SDS011;52214;50.940;13.996;2022-11-20T08:28:52;22.73;;;9.10;;
65572;SDS011;52214;50.940;13.996;2022-11-20T08:31:19;28.83;;;9.30;;
65572;SDS011;52214;50.940;13.996;2022-11-20T08:33:45;26.48;;;10.35;;
65572;SDS011;52214;50.940;13.996;2022-11-20T08:36:11;22.17;;;8.43;;
65572;SDS011;52214;50.940;13.996;2022-11-20T08:38:36;23.65;;;8.32;;
65572;SDS011;52214;50.940;13.996;2022-11-20T08:41:03;21.30;;;7.53;;
65572;SDS011;52214;50.940;13.996;2022-11-20T08:43:48;20.70;;;7.68;;
65572;SDS011;52214;50.940;13.996;2022-11-20T08:46:14;25.92;;;7.45;;
65572;SDS011;52214;50.940;13.996;2022-11-20T08:48:39;23.17;;;8.57;;
65572;SDS011;52214;50.940;13.996;2022-11-20T08:51:05;27.40;;;9.07;;
65572;SDS011;52214;50.940;13.996;2022-11-20T08:53:31;24.53;;;8.30;;
65572;SDS011;52214;50.940;13.996;2022-11-20T08:55:56;20.73;;;8.43;;
65572;SDS011;52214;50.940;13.996;2022-11-20T08:58:23;23.42;;;8.32;;
65572;SDS011;52214;50.940;13.996;2022-11-20T09:00:50;19.87;;;8.53;;
65572;SDS011;52214;50.940;13.996;2022-11-20T09:03:15;23.52;;;8.18;;
65572;SDS011;52214;50.940;13.996;2022-11-20T09:05:41;21.10;;;7.93;;
65572;SDS011;52214;50.940;13.996;2022-11-20T09:08:07;22.30;;;7.97;;
65572;SDS011;52214;50.940;13.996;2022-11-20T09:10:33;17.08;;;7.47;;
65572;SDS011;52214;50.940;13.996;2022-11-20T09:12:59;16.63;;;7.20;;
65572;SDS011;52214;50.940;13.996;2022-11-20T09:15:24;21.57;;;7.63;;
65572;SDS011;52214;50.940;13.996;2022-11-20T09:17:54;18.10;;;7.75;;
65572;SDS011;52214;50.940;13.996;2022-11-20T09:20:21;19.15;;;7.00;;
65572;SDS011;52214;50.940;13.996;2022-11-20T09:22:47;15.65;;;6.47;;
65572;SDS011;52214;50.940;13.996;2022-11-20T09:25:13;15.23;;;6.57;;
65572;SDS011;52214;50.940;13.996;2022-11-20T09:27:39;18.00;;;6.88;;
65572;SDS011;52214;50.940;13.996;2022-11-20T09:30:06;15.75;;;6.90;;
65572;SDS011;52214;50.940;13.996;2022-11-20T09:32:32;22.80;;;8.17;;
65572;SDS011;52214;50.940;13.996;2022-11-20T09:34:58;23.20;;;7.55;;
65572;SDS011;52214;50.940;13.996;2022-11-20T09:37:23;20.13;;;7.37;;
65572;SDS011;52214;50.940;13.996;2022-11-20T09:39:49;18.00;;;7.40;;
65572;SDS011;52214;50.940;13.996;2022-11-20T09:42:24;17.00;;;6.73;;
65572;SDS011;52214;50.940;13.996;2022-11-20T09:55:10;21.45;;;7.47;;
65572;SDS011;52214;50.940;13.996;2022-11-20T09:57:39;20.15;;;7.93;;
65572;SDS011;52214;50.940;13.996;2022-11-20T10:00:11;19.87;;;7.23;;
65572;SDS011;52214;50.940;13.996;2022-11-20T10:02:52;17.42;;;6.30;;
65572;SDS011;52214;50.940;13.996;2022-11-20T10:05:23;15.27;;;6.72;;
65572;SDS011;52214;50.940;13.996;2022-11-20T10:08:07;15.75;;;6.72;;
65572;SDS011;52214;50.940;13.996;2022-11-20T10:20:40;15.77;;;5.55;;
65572;SDS011;52214;50.940;13.996;2022-11-20T10:23:00;15.40;;;6.25;;
65572;SDS011;52214;50.940;13.996;2022-11-20T10:31:31;14.60;;;6.28;;
65572;SDS011;52214;50.940;13.996;2022-11-20T10:34:03;15.77;;;6.47;;
65572;SDS011;52214;50.940;13.996;2022-11-20T10:36:34;16.13;;;6.83;;
65572;SDS011;52214;50.940;13.996;2022-11-20T10:39:14;18.95;;;7.25;;
65572;SDS011;52214;50.940;13.996;2022-11-20T10:41:45;20.70;;;7.30;;
65572;SDS011;52214;50.940;13.996;2022-11-20T10:44:24;14.85;;;6.75;;
65572;SDS011;52214;50.940;13.996;2022-11-20T10:47:17;14.60;;;5.97;;
65572;SDS011;52214;50.940;13.996;2022-11-20T10:49:45;15.27;;;6.18;;
65572;SDS011;52214;50.940;13.996;2022-11-20T10:52:29;18.40;;;6.00;;
65572;SDS011;52214;50.940;13.996;2022-11-20T11:00:22;13.88;;;5.15;;
65572;SDS011;52214;50.940;13.996;2022-11-20T11:02:49;12.77;;;5.17;;
65572;SDS011;52214;50.940;13.996;2022-11-20T11:05:31;12.15;;;5.18;;
65572;SDS011;52214;50.940;13.996;2022-11-20T11:08:01;13.75;;;5.07;;
65572;SDS011;52214;50.940;13.996;2022-11-20T11:10:36;10.10;;;4.57;;
65572;SDS011;52214;50.940;13.996;2022-11-20T11:13:26;12.03;;;5.03;;
65572;SDS011;52214;50.940;13.996;2022-11-20T11:15:53;10.32;;;4.30;;
65572;SDS011;52214;50.940;13.996;2022-11-20T11:18:23;10.55;;;4.57;;
65572;SDS011;52214;50.940;13.996;2022-11-20T11:20:52;10.13;;;4.13;;
65572;SDS011;52214;50.940;13.996;2022-11-20T11:23:28;10.15;;;4.80;;
65572;SDS011;52214;50.940;13.996;2022-11-20T11:26:00;13.17;;;5.20;;
65572;SDS011;52214;50.940;13.996;2022-11-20T11:28:28;10.40;;;5.18;;
65572;SDS011;52214;50.940;13.996;2022-11-20T11:30:54;10.43;;;5.25;;
65572;SDS011;52214;50.940;13.996;2022-11-20T11:33:27;12.48;;;5.15;;
65572;SDS011;52214;50.940;13.996;2022-11-20T11:35:55;11.60;;;4.90;;
65572;SDS011;52214;50.940;13.996;2022-11-20T11:38:41;11.27;;;5.00;;
65572;SDS011;52214;50.940;13.996;2022-11-20T11:41:09;12.40;;;5.30;;
65572;SDS011;52214;50.940;13.996;2022-11-20T11:43:48;10.23;;;4.45;;
65572;SDS011;52214;50.940;13.996;2022-11-20T11:46:35;12.02;;;4.80;;
65572;SDS011;52214;50.940;13.996;2022-11-20T11:57:29;12.75;;;5.40;;
65572;SDS011;52214;50.940;13.996;2022-11-20T12:00:19;11.57;;;4.75;;
65572;SDS011;52214;50.940;13.996;2022-11-20T12:05:18;10.93;;;4.50;;
65572;SDS011;52214;50.940;13.996;2022-11-20T12:08:22;7.03;;;3.38;;
65572;SDS011;52214;50.940;13.996;2022-11-20T12:13:53;9.30;;;3.75;;
65572;SDS011;52214;50.940;13.996;2022-11-20T12:16:23;10.73;;;4.57;;
65572;SDS011;52214;50.940;13.996;2022-11-20T12:18:50;10.93;;;4.50;;
65572;SDS011;52214;50.940;13.996;2022-11-20T12:21:18;13.90;;;4.78;;
65572;SDS011;52214;50.940;13.996;2022-11-20T12:43:30;13.82;;;5.63;;
65572;SDS011;52214;50.940;13.996;2022-11-20T12:46:39;11.03;;;4.50;;
65572;SDS011;52214;50.940;13.996;2022-11-20T12:49:19;12.02;;;5.25;;
65572;SDS011;52214;50.940;13.996;2022-11-20T12:52:24;10.13;;;4.80;;
65572;SDS011;52214;50.940;13.996;2022-11-20T12:55:20;12.02;;;5.03;;
65572;SDS011;52214;50.940;13.996;2022-11-20T13:01:27;11.60;;;4.93;;
65572;SDS011;52214;50.940;13.996;2022-11-20T13:35:23;12.82;;;5.50;;
65572;SDS011;52214;50.940;13.996;2022-11-20T13:37:59;14.45;;;5.13;;
65572;SDS011;52214;50.940;13.996;2022-11-20T13:40:37;13.70;;;5.45;;
65572;SDS011;52214;50.940;13.996;2022-11-20T13:43:11;13.17;;;5.13;;
65572;SDS011;52214;50.940;13.996;2022-11-20T13:46:00;14.13;;;4.97;;
65572;SDS011;52214;50.940;13.996;2022-11-20T13:48:29;14.68;;;6.32;;
65572;SDS011;52214;50.940;13.996;2022-11-20T13:54:28;14.30;;;5.37;;
65572;SDS011;52214;50.940;13.996;2022-11-20T13:59:49;12.65;;;5.28;;
65572;SDS011;52214;50.940;13.996;2022-11-20T14:02:25;14.90;;;5.78;;
65572;SDS011;52214;50.940;13.996;2022-11-20T14:04:52;13.50;;;5.80;;
65572;SDS011;52214;50.940;13.996;2022-11-20T14:07:23;13.98;;;5.68;;
65572;SDS011;52214;50.940;13.996;2022-11-20T14:09:53;13.93;;;5.80;;
65572;SDS011;52214;50.940;13.996;2022-11-20T14:12:21;16.02;;;6.25;;
65572;SDS011;52214;50.940;13.996;2022-11-20T14:14:52;12.15;;;4.97;;
65572;SDS011;52214;50.940;13.996;2022-11-20T14:20:00;15.63;;;7.20;;
65572;SDS011;52214;50.940;13.996;2022-11-20T14:22:28;13.35;;;6.32;;
65572;SDS011;52214;50.940;13.996;2022-11-20T14:25:01;20.43;;;8.43;;
65572;SDS011;52214;50.940;13.996;2022-11-20T14:27:40;98.28;;;27.48;;
65572;SDS011;52214;50.940;13.996;2022-11-20T14:30:14;97.43;;;30.00;;
65572;SDS011;52214;50.940;13.996;2022-11-20T14:32:42;88.88;;;28.98;;
65572;SDS011;52214;50.940;13.996;2022-11-20T14:35:09;48.37;;;15.07;;
65572;SDS011;52214;50.940;13.996;2022-11-20T14:37:44;24.05;;;9.45;;
65572;SDS011;52214;50.940;13.996;2022-11-20T14:42:56;15.77;;;6.70;;
65572;SDS011;52214;50.940;13.996;2022-11-20T14:45:23;15.60;;;7.10;;
65572;SDS011;52214;50.940;13.996;2022-11-20T14:47:54;16.27;;;5.97;;
65572;SDS011;52214;50.940;13.996;2022-11-20T14:50:23;15.00;;;6.50;;
65572;SDS011;52214;50.940;13.996;2022-11-20T14:52:58;16.98;;;6.35;;
65572;SDS011;52214;50.940;13.996;2022-11-20T14:55:32;16.38;;;6.70;;
65572;SDS011;52214;50.940;13.996;2022-11-20T14:58:03;17.67;;;6.33;;
65572;SDS011;52214;50.940;13.996;2022-11-20T15:03:22;16.52;;;6.53;;
65572;SDS011;52214;50.940;13.996;2022-11-20T15:05:50;16.50;;;6.50;;
65572;SDS011;52214;50.940;13.996;2022-11-20T15:08:16;18.08;;;6.47;;
65572;SDS011;52214;50.940;13.996;2022-11-20T15:10:45;16.58;;;6.10;;
65572;SDS011;52214;50.940;13.996;2022-11-20T15:13:14;13.93;;;6.27;;
65572;SDS011;52214;50.940;13.996;2022-11-20T15:15:51;14.05;;;5.93;;
65572;SDS011;52214;50.940;13.996;2022-11-20T15:18:23;15.60;;;6.78;;
65572;SDS011;52214;50.940;13.996;2022-11-20T15:20:49;15.00;;;5.72;;
65572;SDS011;52214;50.940;13.996;2022-11-20T15:23:17;22.13;;;9.63;;
65572;SDS011;52214;50.940;13.996;2022-11-20T15:25:44;16.40;;;6.93;;
65572;SDS011;52214;50.940;13.996;2022-11-20T15:28:20;14.23;;;6.43;;
65572;SDS011;52214;50.940;13.996;2022-11-20T15:30:55;15.27;;;6.03;;
65572;SDS011;52214;50.940;13.996;2022-11-20T15:33:21;14.20;;;5.57;;
65572;SDS011;52214;50.940;13.996;2022-11-20T15:35:47;14.77;;;6.45;;
65572;SDS011;52214;50.940;13.996;2022-11-20T15:38:12;13.43;;;6.07;;
65572;SDS011;52214;50.940;13.996;2022-11-20T15:40:38;15.00;;;6.68;;
65572;SDS011;52214;50.940;13.996;2022-11-20T15:43:04;16.07;;;6.17;;
65572;SDS011;52214;50.940;13.996;2022-11-20T15:45:32;12.45;;;5.53;;
65572;SDS011;52214;50.940;13.996;2022-11-20T15:48:13;13.93;;;5.50;;
65572;SDS011;52214;50.940;13.996;2022-11-20T15:51:27;16.13;;;5.40;;
65572;SDS011;52214;50.940;13.996;2022-11-20T15:53:40;14.95;;;6.53;;
65572;SDS011;52214;50.940;13.996;2022-11-20T15:56:11;12.32;;;5.45;;
65572;SDS011;52214;50.940;13.996;2022-11-20T15:58:37;14.40;;;5.17;;
65572;SDS011;52214;50.940;13.996;2022-11-20T16:01:03;12.23;;;5.18;;
65572;SDS011;52214;50.940;13.996;2022-11-20T16:03:29;12.38;;;5.05;;
65572;SDS011;52214;50.940;13.996;2022-11-20T16:05:55;14.67;;;5.93;;
65572;SDS011;52214;50.940;13.996;2022-11-20T16:08:20;14.87;;;6.10;;
65572;SDS011;52214;50.940;13.996;2022-11-20T16:10:46;15.52;;;6.57;;
65572;SDS011;52214;50.940;13.996;2022-11-20T16:13:12;19.20;;;6.87;;
65572;SDS011;52214;50.940;13.996;2022-11-20T16:15:59;17.67;;;6.90;;
65572;SDS011;52214;50.940;13.996;2022-11-20T16:18:30;15.33;;;6.60;;
65572;SDS011;52214;50.940;13.996;2022-11-20T16:20:55;16.88;;;6.93;;
65572;SDS011;52214;50.940;13.996;2022-11-20T16:23:21;16.93;;;6.70;;
65572;SDS011;52214;50.940;13.996;2022-11-20T16:25:47;14.02;;;5.90;;
65572;SDS011;52214;50.940;13.996;2022-11-20T16:28:13;21.02;;;8.70;;
65572;SDS011;52214;50.940;13.996;2022-11-20T16:30:39;22.95;;;8.15;;
65572;SDS011;52214;50.940;13.996;2022-11-20T16:33:08;22.42;;;8.73;;
65572;SDS011;52214;50.940;13.996;2022-11-20T16:35:36;22.55;;;8.35;;
65572;SDS011;52214;50.940;13.996;2022-11-20T16:38:02;19.00;;;8.40;;
65572;SDS011;52214;50.940;13.996;2022-11-20T16:40:28;25.30;;;10.30;;
65572;SDS011;52214;50.940;13.996;2022-11-20T16:42:54;24.85;;;10.00;;
65572;SDS011;52214;50.940;13.996;2022-11-20T16:45:19;25.57;;;10.20;;
65572;SDS011;52214;50.940;13.996;2022-11-20T16:47:45;23.70;;;8.52;;